Time;durP1;ratioP1;P1;durP2;ratioP2;P2;SDS_P1;SDS_P2;PMS_P1;PMS_P2;Temp;Humidity;BMP_temperature;BMP_pressure;BME280_temperature;BME280_humidity;BME280_pressure;Samples;Min_cycle;Max_cycle;Signal;HPM_P1;HPM_P2
2022/03/05 00:01:01;;;;;;;31.27;18.05;;;;;;;5.77;50.14;101921.06;4990777;28;20034;-61
2022/03/05 00:03:27;;;;;;;28.73;17.98;;;;;;;5.73;50.12;101921.66;4991188;28;20061;-62
2022/03/05 00:05:58;;;;;;;30.15;17.15;;;;;;;5.70;50.06;101914.66;4991279;28;20058;-61
2022/03/05 00:08:26;;;;;;;30.48;18.02;;;;;;;5.73;50.17;101922.50;4978189;28;20460;-61
2022/03/05 00:10:51;;;;;;;30.40;17.48;;;;;;;5.64;50.56;101924.53;4992225;28;20030;-61
2022/03/05 00:13:19;;;;;;;28.73;17.25;;;;;;;5.68;50.49;101921.38;4985878;28;20030;-61
2022/03/05 00:15:48;;;;;;;32.05;17.45;;;;;;;5.57;50.54;101931.00;4990879;28;20129;-61
2022/03/05 00:18:15;;;;;;;32.25;19.08;;;;;;;5.63;50.34;101927.50;4992433;28;20026;-62
2022/03/05 00:20:41;;;;;;;31.92;18.80;;;;;;;5.61;50.46;101929.56;4979339;28;20054;-63
2022/03/05 00:23:06;;;;;;;32.15;18.13;;;;;;;5.65;50.61;101928.97;4977867;28;20022;-61
2022/03/05 00:25:32;;;;;;;30.33;18.60;;;;;;;5.67;50.23;101931.56;4979529;28;20026;-61
2022/03/05 00:27:57;;;;;;;32.78;19.83;;;;;;;5.66;50.38;101938.97;4981695;28;20539;-61
2022/03/05 00:30:22;;;;;;;32.13;18.60;;;;;;;5.69;50.32;101936.88;4991461;28;20133;-61
2022/03/05 00:32:48;;;;;;;33.42;19.35;;;;;;;5.61;50.50;101927.66;4995662;28;20023;-61
2022/03/05 00:35:14;;;;;;;34.38;19.80;;;;;;;5.57;50.47;101931.84;4994781;28;20032;-61
2022/03/05 00:37:43;;;;;;;33.28;18.92;;;;;;;5.62;50.59;101934.06;4995084;28;20084;-61
2022/03/05 00:40:09;;;;;;;36.13;20.58;;;;;;;5.50;50.93;101930.94;5011039;28;20054;-62
2022/03/05 00:42:35;;;;;;;33.80;20.83;;;;;;;5.45;50.77;101927.03;5014095;28;20096;-61
2022/03/05 00:45:01;;;;;;;33.63;19.92;;;;;;;5.45;51.05;101929.81;5014858;28;20497;-62
2022/03/05 00:47:26;;;;;;;36.53;21.48;;;;;;;5.44;51.11;101928.09;5003222;28;20022;-61
2022/03/05 00:49:53;;;;;;;35.88;20.23;;;;;;;5.37;51.17;101931.63;5013827;28;20033;-61
2022/03/05 00:52:18;;;;;;;38.75;21.48;;;;;;;5.35;51.28;101928.22;5013543;28;20026;-61
2022/03/05 00:54:44;;;;;;;35.42;20.63;;;;;;;5.33;51.34;101916.53;5002754;28;20046;-61
2022/03/05 00:57:09;;;;;;;36.42;21.60;;;;;;;5.35;51.29;101921.84;5005492;28;20181;-62
2022/03/05 00:59:34;;;;;;;41.50;22.20;;;;;;;5.35;51.54;101930.13;5010881;28;20034;-62
2022/03/05 01:01:59;;;;;;;39.60;22.35;;;;;;;5.33;51.39;101923.94;5014420;28;20497;-62
2022/03/05 01:04:25;;;;;;;42.50;23.10;;;;;;;5.29;51.57;101928.13;5013533;28;20029;-62
2022/03/05 01:06:50;;;;;;;38.05;21.83;;;;;;;5.21;51.66;101926.31;5014367;28;20021;-62
2022/03/05 01:09:18;;;;;;;39.28;22.60;;;;;;;5.16;51.70;101918.66;5014131;28;20026;-62
2022/03/05 01:11:43;;;;;;;37.97;22.63;;;;;;;5.13;51.75;101929.19;5012092;28;20047;-62
2022/03/05 01:14:09;;;;;;;39.45;23.08;;;;;;;5.07;51.86;101925.31;5013862;28;20029;-62
2022/03/05 01:16:34;;;;;;;40.83;23.23;;;;;;;4.97;52.08;101924.72;5006708;28;20030;-62
2022/03/05 01:19:00;;;;;;;38.72;22.80;;;;;;;4.95;52.45;101920.44;5014763;28;20030;-62
2022/03/05 01:21:27;;;;;;;37.50;22.33;;;;;;;4.98;52.40;101917.31;5014222;28;20018;-62
2022/03/05 01:23:53;;;;;;;41.33;23.70;;;;;;;4.93;52.44;101920.66;5015777;28;20097;-61
2022/03/05 01:26:18;;;;;;;42.00;23.35;;;;;;;4.93;52.80;101917.91;5014548;28;20132;-61
2022/03/05 01:28:43;;;;;;;40.05;23.77;;;;;;;4.92;52.56;101914.31;5013786;28;20021;-61
2022/03/05 01:31:09;;;;;;;40.10;23.13;;;;;;;4.92;52.42;101917.06;5012758;28;20530;-61
2022/03/05 01:33:34;;;;;;;42.90;24.67;;;;;;;4.88;52.65;101925.88;5017336;28;20044;-61
2022/03/05 01:35:59;;;;;;;39.72;23.73;;;;;;;4.86;52.79;101922.44;5013633;28;20037;-62
2022/03/05 01:38:24;;;;;;;40.47;23.95;;;;;;;4.86;52.50;101916.94;5011648;28;20056;-62
2022/03/05 01:40:52;;;;;;;44.80;25.23;;;;;;;4.83;52.78;101918.16;5013548;28;20188;-61
2022/03/05 01:43:18;;;;;;;39.83;23.88;;;;;;;4.78;52.91;101915.13;5012105;28;20077;-61
2022/03/05 01:45:43;;;;;;;39.13;23.08;;;;;;;4.72;52.92;101915.91;5013148;28;20594;-61
2022/03/05 01:48:08;;;;;;;40.55;23.75;;;;;;;4.73;52.75;101909.34;5013249;28;20040;-61
2022/03/05 01:50:34;;;;;;;44.00;25.35;;;;;;;4.70;53.18;101917.97;5012423;28;20120;-61
2022/03/05 01:53:00;;;;;;;38.90;23.20;;;;;;;4.65;52.99;101924.06;5019165;28;20056;-61
2022/03/05 01:55:25;;;;;;;42.72;24.42;;;;;;;4.60;52.82;101914.69;5013008;28;20508;-61
2022/03/05 01:57:51;;;;;;;44.85;25.38;;;;;;;4.59;53.16;101918.44;5012693;28;20030;-61
2022/03/05 02:00:17;;;;;;;43.13;25.08;;;;;;;4.55;53.09;101919.84;5022175;28;20396;-61
2022/03/05 02:02:43;;;;;;;41.10;24.30;;;;;;;4.53;53.36;101913.72;5013132;28;20115;-61
2022/03/05 02:05:10;;;;;;;38.70;24.38;;;;;;;4.52;53.45;101922.97;5012800;28;20026;-61
2022/03/05 02:07:36;;;;;;;41.38;24.73;;;;;;;4.45;53.69;101916.53;5012852;28;20589;-61
2022/03/05 02:10:03;;;;;;;43.50;24.02;;;;;;;4.43;53.41;101917.56;5013023;28;20049;-61
2022/03/05 02:12:32;;;;;;;45.80;25.85;;;;;;;4.37;53.99;101923.81;5012460;28;20022;-61
2022/03/05 02:14:58;;;;;;;47.70;25.95;;;;;;;4.35;53.47;101925.03;5025827;28;20477;-61
2022/03/05 02:17:28;;;;;;;45.80;26.13;;;;;;;4.25;53.86;101918.97;5012700;28;20108;-61
2022/03/05 02:19:59;;;;;;;45.58;26.73;;;;;;;4.34;54.14;101913.19;5012304;28;20060;-62
2022/03/05 02:22:25;;;;;;;42.75;25.38;;;;;;;4.31;53.96;101918.19;5013043;28;20465;-61
2022/03/05 02:25:02;;;;;;;47.20;26.17;;;;;;;4.33;54.06;101910.63;5012475;28;20037;-61
2022/03/05 02:27:28;;;;;;;46.40;26.52;;;;;;;4.34;53.94;101909.59;5011668;28;20433;-61
2022/03/05 02:29:55;;;;;;;47.83;26.90;;;;;;;4.37;53.73;101909.22;5012353;28;20033;-62
2022/03/05 02:32:20;;;;;;;46.40;26.25;;;;;;;4.41;54.29;101903.16;5005493;28;20069;-62
2022/03/05 02:34:46;;;;;;;49.63;26.58;;;;;;;4.42;54.02;101899.38;5011707;28;20120;-62
2022/03/05 02:37:13;;;;;;;44.58;25.38;;;;;;;4.40;53.68;101900.59;5011123;28;20042;-62
2022/03/05 02:39:39;;;;;;;46.65;25.77;;;;;;;4.41;53.56;101897.66;5011944;28;20058;-62
2022/03/05 02:42:04;;;;;;;49.08;27.08;;;;;;;4.36;53.62;101893.75;5012637;28;20312;-62
2022/03/05 02:44:30;;;;;;;44.67;26.75;;;;;;;4.36;54.11;101896.50;5012801;28;20175;-62
2022/03/05 02:46:58;;;;;;;46.70;27.38;;;;;;;4.31;53.79;101902.56;5011530;28;20034;-62
2022/03/05 02:49:23;;;;;;;45.40;25.55;;;;;;;4.29;54.02;101901.91;5007652;28;20084;-62
2022/03/05 02:51:48;;;;;;;45.75;26.90;;;;;;;4.27;53.86;101900.38;4998843;28;20031;-62
2022/03/05 02:54:14;;;;;;;49.30;27.23;;;;;;;4.23;53.67;101897.13;4992904;28;20489;-62
2022/03/05 02:56:39;;;;;;;43.45;25.95;;;;;;;4.20;53.83;101903.00;5003177;28;20038;-62
2022/03/05 02:59:08;;;;;;;47.33;27.00;;;;;;;4.21;53.76;101903.88;5009969;28;20113;-62
2022/03/05 03:01:33;;;;;;;46.70;26.85;;;;;;;4.13;54.03;101908.41;5011475;28;20045;-62
2022/03/05 03:03:58;;;;;;;50.45;27.27;;;;;;;4.04;54.03;101900.41;5002048;28;20041;-62
2022/03/05 03:06:24;;;;;;;44.53;26.48;;;;;;;4.00;54.37;101901.81;5009584;28;20030;-62
2022/03/05 03:08:49;;;;;;;46.60;25.75;;;;;;;3.90;54.30;101905.66;5011672;28;20030;-62
2022/03/05 03:11:21;;;;;;;44.85;26.42;;;;;;;3.84;54.27;101911.03;5011455;28;20030;-62
2022/03/05 03:13:46;;;;;;;46.83;26.33;;;;;;;3.77;54.06;101910.03;5009767;28;20044;-62
2022/03/05 03:16:11;;;;;;;44.33;26.55;;;;;;;3.78;54.54;101906.28;5011970;28;20548;-62
2022/03/05 03:18:36;;;;;;;45.83;26.60;;;;;;;3.73;54.71;101903.22;5010391;28;20076;-62
2022/03/05 03:21:02;;;;;;;45.13;26.70;;;;;;;3.69;54.21;101898.13;5011438;28;20485;-62
2022/03/05 03:23:27;;;;;;;50.50;27.67;;;;;;;3.61;54.77;101894.53;5011000;28;20034;-62
2022/03/05 03:25:53;;;;;;;50.13;27.35;;;;;;;3.62;54.54;101893.53;5009674;28;20072;-62
2022/03/05 03:28:18;;;;;;;51.65;28.10;;;;;;;3.58;55.24;101904.00;5011818;28;20026;-62
2022/03/05 03:30:43;;;;;;;44.88;26.55;;;;;;;3.58;55.14;101903.16;5011237;28;20311;-62
2022/03/05 03:33:09;;;;;;;46.13;26.83;;;;;;;3.58;55.13;101895.78;4998051;28;20042;-62
2022/03/05 03:35:37;;;;;;;47.30;26.75;;;;;;;3.58;55.20;101892.19;5011584;28;20034;-62
2022/03/05 03:38:02;;;;;;;45.30;26.35;;;;;;;3.48;55.42;101878.69;5010765;28;20041;-62
2022/03/05 03:40:30;;;;;;;49.13;27.45;;;;;;;3.49;54.52;101891.34;5010627;28;20041;-61
2022/03/05 03:42:56;;;;;;;49.72;27.05;;;;;;;3.47;55.14;101887.09;5011002;28;20034;-61
2022/03/05 03:45:21;;;;;;;44.88;26.35;;;;;;;3.43;54.60;101892.09;5001560;28;20026;-61
2022/03/05 03:47:51;;;;;;;44.15;26.23;;;;;;;3.36;55.51;101891.09;5010717;28;20548;-61
2022/03/05 03:50:20;;;;;;;45.72;27.40;;;;;;;3.30;55.29;101891.81;5009628;28;20121;-62
2022/03/05 03:52:45;;;;;;;47.03;26.40;;;;;;;3.33;54.82;101902.44;5009138;28;20128;-62
2022/03/05 03:55:14;;;;;;;44.90;26.75;;;;;;;3.23;55.52;101902.66;5010055;28;20393;-62
2022/03/05 03:57:39;;;;;;;46.35;26.83;;;;;;;3.23;55.66;101901.81;5011136;28;20508;-62
2022/03/05 04:00:08;;;;;;;46.92;27.00;;;;;;;3.19;55.39;101902.16;5009565;28;20116;-62
2022/03/05 04:02:33;;;;;;;46.20;26.48;;;;;;;3.17;55.25;101897.88;5009385;28;20026;-62
2022/03/05 04:04:58;;;;;;;47.72;26.95;;;;;;;3.17;55.56;101893.25;5008458;28;20501;-62
2022/03/05 04:10:08;;;;;;;45.72;27.38;;;;;;;3.24;55.71;101889.81;5010498;28;20559;-62
2022/03/05 04:12:34;;;;;;;47.55;27.58;;;;;;;3.22;55.26;101880.88;5010484;28;20042;-62
2022/03/05 04:14:59;;;;;;;46.33;27.98;;;;;;;3.30;55.14;101891.81;5009770;28;20096;-62
2022/03/05 04:17:25;;;;;;;47.15;25.58;;;;;;;3.32;54.94;101896.09;5011005;28;20034;-62
2022/03/05 04:19:50;;;;;;;49.08;27.10;;;;;;;3.27;54.90;101898.53;5009595;28;20036;-62
2022/03/05 04:22:15;;;;;;;48.00;26.73;;;;;;;3.26;55.08;101891.31;5008512;28;20080;-62
2022/03/05 04:24:44;;;;;;;45.45;26.90;;;;;;;3.22;55.30;101894.59;5011013;28;20437;-63
2022/03/05 04:27:09;;;;;;;46.08;27.08;;;;;;;3.26;55.44;101896.81;5012398;28;20033;-62
2022/03/05 04:29:34;;;;;;;53.63;28.30;;;;;;;3.24;55.46;101901.63;5014616;28;20040;-62
2022/03/05 04:32:00;;;;;;;46.03;25.58;;;;;;;3.24;55.44;101898.88;5010262;28;20049;-62
2022/03/05 04:34:25;;;;;;;49.78;27.33;;;;;;;3.20;55.47;101898.38;5029981;28;20025;-62
2022/03/05 04:36:51;;;;;;;46.63;26.60;;;;;;;3.22;55.95;101900.09;5014496;28;20497;-62
2022/03/05 04:39:16;;;;;;;51.15;27.88;;;;;;;3.19;55.15;101904.91;5005690;28;20137;-62
2022/03/05 04:41:42;;;;;;;47.83;27.52;;;;;;;3.15;55.32;101910.94;5009880;28;20385;-62
2022/03/05 04:44:08;;;;;;;51.53;27.90;;;;;;;3.17;55.30;101915.19;5011017;28;20032;-61
2022/03/05 04:46:34;;;;;;;46.40;26.85;;;;;;;3.18;55.40;101911.44;5010570;28;20033;-62
2022/03/05 04:48:59;;;;;;;45.33;26.73;;;;;;;3.10;55.26;101913.34;5010059;28;20029;-61
2022/03/05 04:51:24;;;;;;;46.15;27.08;;;;;;;3.04;55.31;101905.84;5010160;28;20120;-61
2022/03/05 04:53:50;;;;;;;49.03;26.83;;;;;;;3.03;55.37;101912.38;5010201;28;20025;-61
2022/03/05 04:56:15;;;;;;;49.67;27.95;;;;;;;2.97;55.78;101913.91;5009799;28;20485;-62
2022/03/05 04:58:41;;;;;;;50.10;26.55;;;;;;;3.02;55.77;101916.97;5010228;28;20041;-61
2022/03/05 05:01:06;;;;;;;48.72;26.85;;;;;;;3.05;55.42;101919.38;5015791;28;20037;-62
2022/03/05 05:03:33;;;;;;;47.00;26.77;;;;;;;3.06;56.13;101917.47;5010474;28;20038;-63
2022/03/05 05:05:58;;;;;;;52.92;28.27;;;;;;;3.03;55.59;101921.44;5010224;28;20385;-62
2022/03/05 05:08:23;;;;;;;51.17;27.50;;;;;;;3.03;56.33;101918.72;5010710;28;20764;-63
2022/03/05 05:10:49;;;;;;;50.72;27.13;;;;;;;3.03;56.38;101921.44;5010178;28;20029;-62
2022/03/05 05:13:14;;;;;;;48.92;27.10;;;;;;;3.00;55.67;101918.22;5008648;28;20037;-62
2022/03/05 05:15:48;;;;;;;53.88;27.15;;;;;;;2.98;55.81;101918.38;5010519;28;20486;-62
2022/03/05 05:18:14;;;;;;;53.33;27.73;;;;;;;2.98;55.84;101923.84;5013401;28;20108;-60
2022/03/05 05:20:39;;;;;;;49.75;27.10;;;;;;;2.98;56.34;101910.13;5022553;28;20478;-61
2022/03/05 05:23:04;;;;;;;50.80;27.67;;;;;;;2.93;56.34;101912.56;5012974;28;20509;-61
2022/03/05 05:25:30;;;;;;;51.88;26.88;;;;;;;2.95;56.44;101916.00;5013980;28;20034;-61
2022/03/05 05:27:55;;;;;;;48.00;27.02;;;;;;;2.94;56.16;101925.25;5013171;28;20030;-62
2022/03/05 05:30:26;;;;;;;51.80;26.75;;;;;;;2.95;55.91;101919.59;5012225;28;20777;-62
2022/03/05 05:32:54;;;;;;;49.58;27.50;;;;;;;3.00;56.03;101924.53;5012523;28;20029;-61
2022/03/05 05:35:19;;;;;;;50.70;27.45;;;;;;;3.01;55.47;101926.25;5033677;28;20374;-62
2022/03/05 05:37:45;;;;;;;53.55;27.73;;;;;;;2.97;55.80;101933.13;5012171;28;20487;-62
2022/03/05 05:40:10;;;;;;;44.83;25.98;;;;;;;3.02;55.66;101938.91;5013085;28;20057;-62
2022/03/05 05:42:36;;;;;;;46.95;26.25;;;;;;;3.05;55.52;101933.09;5012814;28;20065;-62
2022/03/05 05:45:03;;;;;;;49.03;27.02;;;;;;;3.07;55.56;101941.16;5013217;28;20034;-62
2022/03/05 05:47:28;;;;;;;46.92;26.77;;;;;;;3.04;55.81;101944.25;5012840;28;20374;-62
2022/03/05 05:49:56;;;;;;;49.33;26.15;;;;;;;3.01;55.99;101942.69;5013982;28;20029;-63
2022/03/05 05:52:22;;;;;;;49.47;26.58;;;;;;;2.97;55.84;101945.97;5011645;28;20034;-61
2022/03/05 05:54:47;;;;;;;50.95;27.48;;;;;;;3.01;55.89;101950.06;5010869;28;20500;-60
2022/03/05 05:57:12;;;;;;;46.47;26.33;;;;;;;2.91;55.85;101948.41;5011123;28;20037;-61
2022/03/05 05:59:44;;;;;;;50.83;26.67;;;;;;;2.92;56.42;101952.00;5010691;28;20156;-62
2022/03/05 06:02:12;;;;;;;52.38;27.50;;;;;;;2.93;55.77;101949.06;5012123;28;20121;-61
2022/03/05 06:04:37;;;;;;;51.25;26.48;;;;;;;2.91;55.99;101953.88;5011752;28;20029;-62
2022/03/05 06:07:03;;;;;;;51.65;27.60;;;;;;;2.87;56.26;101943.41;5012468;28;20099;-61
2022/03/05 06:09:28;;;;;;;51.30;27.17;;;;;;;2.91;56.22;101944.81;5013543;28;20065;-61
2022/03/05 06:11:53;;;;;;;49.75;27.10;;;;;;;2.83;55.96;101944.81;5013212;28;20029;-62
2022/03/05 06:14:19;;;;;;;51.70;27.45;;;;;;;2.88;57.05;101950.63;5006472;28;20038;-61
2022/03/05 06:16:44;;;;;;;46.85;26.88;;;;;;;2.83;56.63;101939.31;5004455;28;20061;-61
2022/03/05 06:19:12;;;;;;;46.45;26.02;;;;;;;2.83;56.55;101945.69;5002627;28;20027;-61
2022/03/05 06:21:40;;;;;;;52.47;26.67;;;;;;;2.81;56.42;101942.25;5020966;28;20064;-60
2022/03/05 06:24:07;;;;;;;54.92;27.83;;;;;;;2.75;55.93;101945.72;5011641;28;20034;-60
2022/03/05 06:26:35;;;;;;;48.70;26.98;;;;;;;2.73;57.03;101953.25;5012922;28;20037;-63
2022/03/05 06:29:04;;;;;;;49.97;27.30;;;;;;;2.67;56.44;101953.91;5011328;28;20148;-63
2022/03/05 06:31:29;;;;;;;52.80;26.27;;;;;;;2.68;56.26;101950.19;4999436;28;20112;-62
2022/03/05 06:33:54;;;;;;;51.17;26.02;;;;;;;2.74;56.24;101951.34;5012560;28;20161;-62
2022/03/05 06:36:20;;;;;;;49.35;26.52;;;;;;;2.75;56.47;101955.78;5012853;28;20168;-61
2022/03/05 06:38:45;;;;;;;53.42;26.35;;;;;;;2.74;56.12;101951.34;5011630;28;20061;-62
2022/03/05 06:41:10;;;;;;;51.67;27.27;;;;;;;2.74;56.23;101956.84;5011682;28;20041;-62
2022/03/05 06:43:51;;;;;;;51.60;26.98;;;;;;;2.75;56.46;101953.94;5012909;28;20104;-62
2022/03/05 06:46:18;;;;;;;54.83;27.60;;;;;;;2.72;56.45;101964.38;5002202;28;20034;-61
2022/03/05 06:48:47;;;;;;;49.63;26.23;;;;;;;2.75;56.89;101964.00;5007305;28;20049;-62
2022/03/05 06:51:13;;;;;;;50.28;26.33;;;;;;;2.77;56.61;101961.97;5012183;28;20080;-61
2022/03/05 06:53:38;;;;;;;52.70;26.25;;;;;;;2.72;56.51;101954.28;5022917;28;20037;-62
2022/03/05 06:56:06;;;;;;;52.38;26.95;;;;;;;2.73;56.68;101961.47;5018204;28;20036;-62
2022/03/05 06:58:32;;;;;;;52.28;26.77;;;;;;;2.76;56.86;101963.00;5008765;28;20034;-62
2022/03/05 07:00:57;;;;;;;50.80;27.35;;;;;;;2.81;56.20;101964.19;5005698;28;20044;-61
2022/03/05 07:03:22;;;;;;;49.92;26.45;;;;;;;2.79;56.68;101971.75;5010766;28;20037;-62
2022/03/05 07:05:48;;;;;;;53.78;26.98;;;;;;;2.83;57.01;101977.72;5012805;28;20030;-62
2022/03/05 07:08:13;;;;;;;52.03;26.17;;;;;;;2.79;57.19;101970.84;5012381;28;20042;-62
2022/03/05 07:10:38;;;;;;;52.58;26.95;;;;;;;2.81;57.23;101979.78;5011140;28;20045;-62
2022/03/05 07:15:58;;;;;;;53.80;25.98;;;;;;;2.70;56.86;101984.59;5001486;28;20099;-62
2022/03/05 07:18:24;;;;;;;54.15;27.17;;;;;;;2.74;56.77;101981.50;5009730;28;20033;-61
2022/03/05 07:20:57;;;;;;;56.17;28.48;;;;;;;2.78;56.75;101991.09;5021710;28;20091;-64
2022/03/05 07:23:22;;;;;;;54.30;27.70;;;;;;;2.81;57.61;101985.25;5023632;28;20053;-61
2022/03/05 07:25:48;;;;;;;54.03;27.52;;;;;;;2.82;57.76;101992.44;5011582;28;20351;-61
2022/03/05 07:28:13;;;;;;;55.65;28.88;;;;;;;2.80;57.44;102002.75;5012535;28;20073;-61
2022/03/05 07:30:39;;;;;;;57.17;28.95;;;;;;;2.89;57.68;101996.22;5020815;28;20041;-61
2022/03/05 07:33:05;;;;;;;56.05;28.75;;;;;;;2.80;57.43;101992.63;5032404;28;20033;-61
2022/03/05 07:35:30;;;;;;;56.90;28.35;;;;;;;2.86;57.58;101994.66;5022890;28;20029;-61
2022/03/05 07:37:58;;;;;;;57.03;27.88;;;;;;;2.92;57.21;101999.47;5011786;28;20041;-61
2022/03/05 07:40:24;;;;;;;52.70;27.40;;;;;;;2.98;57.67;101992.41;5020472;28;20053;-62
2022/03/05 07:42:49;;;;;;;55.67;27.88;;;;;;;3.04;56.76;101993.63;5030196;28;20167;-62
2022/03/05 07:45:14;;;;;;;52.33;27.58;;;;;;;3.03;57.74;101991.91;5011054;28;20061;-61
2022/03/05 07:47:42;;;;;;;55.08;28.20;;;;;;;3.11;57.08;101984.50;5012068;28;20516;-62
2022/03/05 07:50:08;;;;;;;56.40;27.15;;;;;;;3.14;57.22;101986.91;5011117;28;20026;-61
2022/03/05 07:52:33;;;;;;;51.35;26.98;;;;;;;3.17;56.92;101975.56;5011294;28;20037;-62
2022/03/05 07:54:59;;;;;;;55.80;27.67;;;;;;;3.24;57.27;101980.34;5011257;28;20022;-61
2022/03/05 07:57:24;;;;;;;57.10;28.85;;;;;;;3.28;57.32;101990.78;5017005;28;20037;-61
2022/03/05 07:59:49;;;;;;;58.45;26.58;;;;;;;3.39;56.79;102000.53;5004535;28;20030;-61
2022/03/05 08:02:15;;;;;;;54.97;27.58;;;;;;;3.48;56.66;101998.59;5011448;28;20048;-61
2022/03/05 08:04:43;;;;;;;54.08;28.60;;;;;;;3.57;57.55;102006.59;5010223;28;20030;-62
2022/03/05 08:07:08;;;;;;;58.53;28.70;;;;;;;3.66;57.06;102008.28;5011642;28;20087;-62
2022/03/05 08:09:35;;;;;;;55.22;28.25;;;;;;;3.76;56.10;102009.94;5010335;28;20133;-62
2022/03/05 08:12:01;;;;;;;58.65;29.23;;;;;;;3.85;55.60;102011.59;5010291;28;20052;-61
2022/03/05 08:14:27;;;;;;;61.65;28.17;;;;;;;3.97;56.09;102017.53;5011374;28;20018;-62
2022/03/05 08:16:52;;;;;;;57.75;28.65;;;;;;;4.09;55.72;102016.13;5010108;28;20116;-61
2022/03/05 08:19:20;;;;;;;55.67;27.88;;;;;;;4.18;55.41;102018.63;5010795;28;20030;-61
2022/03/05 08:21:46;;;;;;;58.08;29.45;;;;;;;4.28;55.08;102014.75;5011013;28;20048;-62
2022/03/05 08:24:11;;;;;;;56.80;27.38;;;;;;;4.35;54.48;102019.34;5011864;28;20525;-61
2022/03/05 08:26:37;;;;;;;55.75;28.42;;;;;;;4.45;54.52;102019.09;5007549;28;20445;-61
2022/03/05 08:29:03;;;;;;;57.17;28.50;;;;;;;4.55;54.60;102027.94;5004234;28;20037;-61
2022/03/05 08:31:31;;;;;;;56.40;28.10;;;;;;;4.67;53.87;102028.34;5007143;28;20486;-62
2022/03/05 08:34:01;;;;;;;56.28;28.27;;;;;;;4.76;53.35;102026.41;5010926;28;20044;-62
2022/03/05 08:36:27;;;;;;;64.85;29.50;;;;;;;4.84;53.31;102018.06;5010132;28;20042;-64
2022/03/05 08:38:53;;;;;;;60.60;29.30;;;;;;;4.88;53.48;102022.16;5001979;28;20074;-62
2022/03/05 08:41:18;;;;;;;62.10;29.65;;;;;;;4.92;53.37;102023.50;4990703;28;20116;-62
2022/03/05 08:43:43;;;;;;;60.40;29.52;;;;;;;5.04;53.07;102023.91;4991544;28;20019;-63
2022/03/05 08:46:09;;;;;;;53.85;27.52;;;;;;;5.12;52.67;102021.91;4997943;28;20389;-62
2022/03/05 08:48:34;;;;;;;55.97;28.27;;;;;;;5.18;52.36;102025.78;4990379;28;20030;-61
2022/03/05 08:51:00;;;;;;;59.88;29.45;;;;;;;5.25;51.91;102025.91;4985172;28;20481;-61
2022/03/05 08:53:25;;;;;;;59.20;29.52;;;;;;;5.32;52.07;102029.59;4995164;28;20041;-62
2022/03/05 08:55:51;;;;;;;56.05;28.58;;;;;;;5.41;51.77;102020.19;5001201;28;20073;-62
2022/03/05 08:58:16;;;;;;;58.53;27.55;;;;;;;5.53;51.45;102021.41;4995277;28;20026;-62
2022/03/05 09:00:42;;;;;;;60.63;29.60;;;;;;;5.63;51.27;102018.38;4995390;28;20114;-62
2022/03/05 09:03:07;;;;;;;53.97;27.77;;;;;;;5.63;51.51;102024.75;5000012;28;20044;-61
2022/03/05 09:05:35;;;;;;;54.92;28.02;;;;;;;5.76;51.10;102031.47;5015060;28;20173;-61
2022/03/05 09:08:00;;;;;;;52.50;27.00;;;;;;;5.79;50.67;102029.19;5003505;28;20045;-62
2022/03/05 09:10:26;;;;;;;52.72;27.20;;;;;;;5.96;51.04;102029.84;4994590;28;20030;-62
2022/03/05 09:12:51;;;;;;;54.60;28.92;;;;;;;6.04;51.50;102026.09;5013672;28;20108;-61
2022/03/05 09:15:16;;;;;;;57.72;28.70;;;;;;;6.16;50.11;102024.53;4995535;28;20580;-61
2022/03/05 09:17:42;;;;;;;57.05;28.73;;;;;;;6.18;50.16;102021.63;4994794;28;20034;-62
2022/03/05 09:20:09;;;;;;;55.45;28.40;;;;;;;6.26;49.64;102022.34;4994580;28;20041;-61
2022/03/05 09:22:34;;;;;;;63.35;28.98;;;;;;;6.39;49.76;102024.38;4995281;28;20026;-61
2022/03/05 09:25:03;;;;;;;57.80;29.25;;;;;;;6.42;49.92;102021.22;4995083;28;20033;-61
2022/03/05 09:27:29;;;;;;;54.85;27.90;;;;;;;6.51;49.77;102021.94;4997170;28;20040;-61
2022/03/05 09:29:54;;;;;;;53.22;27.92;;;;;;;6.59;48.96;102013.53;4993958;28;20053;-61
2022/03/05 09:32:19;;;;;;;57.10;29.40;;;;;;;6.68;48.57;101995.78;4994222;28;20050;-61
2022/03/05 09:34:45;;;;;;;55.03;29.65;;;;;;;6.74;48.90;102005.16;4994830;28;20030;-62
2022/03/05 09:37:16;;;;;;;58.00;28.30;;;;;;;6.74;49.02;102006.00;4993965;28;20386;-61
2022/03/05 09:39:41;;;;;;;55.35;28.13;;;;;;;6.86;47.85;102000.81;5006504;28;20041;-61
2022/03/05 09:42:07;;;;;;;54.22;28.83;;;;;;;6.94;48.62;102000.66;5013095;28;20088;-61
2022/03/05 09:44:33;;;;;;;53.90;28.20;;;;;;;7.02;47.93;101996.88;5012001;28;20032;-61
2022/03/05 09:47:00;;;;;;;57.65;29.65;;;;;;;7.13;48.59;102010.97;5012357;28;20510;-62
2022/03/05 09:49:27;;;;;;;53.55;28.67;;;;;;;7.19;47.24;102002.94;5013318;28;20049;-61
2022/03/05 09:51:54;;;;;;;59.38;29.23;;;;;;;7.25;47.82;102013.19;5011751;28;20430;-61
2022/03/05 09:54:20;;;;;;;60.10;28.08;;;;;;;7.30;47.14;102005.97;5012312;28;20385;-62
2022/03/05 09:56:45;;;;;;;54.72;28.92;;;;;;;7.41;47.03;101998.19;5010436;28;20022;-62
2022/03/05 09:59:11;;;;;;;58.88;29.67;;;;;;;7.49;46.94;101998.00;5008929;28;20052;-62
2022/03/05 10:01:36;;;;;;;55.00;27.98;;;;;;;7.58;47.43;102005.06;5011653;28;20033;-62
2022/03/05 10:04:02;;;;;;;56.85;29.23;;;;;;;7.68;46.13;102011.06;5010479;28;20038;-62
2022/03/05 10:06:28;;;;;;;53.03;28.83;;;;;;;7.77;46.44;102007.06;5008936;28;20029;-62
2022/03/05 10:08:57;;;;;;;59.20;29.98;;;;;;;7.87;46.54;102007.53;5009592;28;20080;-62
2022/03/05 10:11:24;;;;;;;50.45;26.85;;;;;;;7.90;45.72;102003.53;5009513;28;20026;-62
2022/03/05 10:13:50;;;;;;;49.38;27.02;;;;;;;7.98;45.68;102008.88;4998622;28;20072;-62
2022/03/05 10:16:26;;;;;;;55.83;27.83;;;;;;;8.11;45.62;102008.03;5011505;28;20057;-61
2022/03/05 10:18:53;;;;;;;51.28;27.85;;;;;;;8.17;44.90;102007.19;5008402;28;20068;-62
2022/03/05 10:21:26;;;;;;;52.88;27.95;;;;;;;8.29;45.18;102004.66;5008638;28;20477;-61
2022/03/05 10:24:06;;;;;;;51.90;27.75;;;;;;;8.36;44.56;102003.63;5012153;28;20033;-62
2022/03/05 10:26:50;;;;;;;53.03;27.33;;;;;;;8.45;44.51;102003.44;5008333;28;20052;-62
2022/03/05 10:29:24;;;;;;;50.30;27.88;;;;;;;8.51;44.66;102002.63;5011203;28;20496;-62
2022/03/05 10:32:01;;;;;;;52.13;29.42;;;;;;;8.57;44.72;101996.25;5008264;28;20026;-62
2022/03/05 10:34:49;;;;;;;49.63;27.02;;;;;;;8.61;43.96;101994.75;5007629;28;20042;-62
2022/03/05 10:37:15;;;;;;;49.75;27.85;;;;;;;8.66;44.12;101997.72;4994327;28;20042;-60
2022/03/05 10:39:41;;;;;;;54.08;27.20;;;;;;;8.70;43.15;102003.69;5006345;28;20050;-62
2022/03/05 10:42:24;;;;;;;50.28;27.60;;;;;;;8.78;43.87;102003.47;5008919;28;20492;-65
2022/03/05 10:45:11;;;;;;;49.97;28.10;;;;;;;8.86;44.14;102000.50;5006064;28;20049;-62
2022/03/05 10:47:40;;;;;;;51.17;29.35;;;;;;;8.90;43.63;101990.69;5008792;28;20038;-61
2022/03/05 10:50:20;;;;;;;54.90;28.80;;;;;;;8.94;45.09;102003.03;5006642;28;20056;-61
2022/03/05 10:52:51;;;;;;;53.08;28.15;;;;;;;8.91;43.25;101997.94;5007471;28;20050;-60
2022/03/05 10:55:22;;;;;;;51.65;27.90;;;;;;;8.93;42.91;101995.81;5005013;28;20450;-61
2022/03/05 10:57:58;;;;;;;52.33;27.70;;;;;;;9.04;43.69;101999.84;5008630;28;20030;-61
2022/03/05 11:00:27;;;;;;;50.33;27.00;;;;;;;9.10;43.43;101999.81;5010636;28;20037;-62
2022/03/05 11:02:54;;;;;;;53.28;28.90;;;;;;;9.10;42.97;102001.75;5010816;28;21198;-62
2022/03/05 11:05:19;;;;;;;59.35;29.50;;;;;;;9.06;42.95;102000.47;5010757;28;20021;-61
2022/03/05 11:07:51;;;;;;;51.40;28.80;;;;;;;9.16;43.33;102005.59;5008465;28;20088;-61
2022/03/05 11:10:18;;;;;;;54.95;29.08;;;;;;;9.21;43.65;102003.00;5010196;28;20346;-61
2022/03/05 11:12:51;;;;;;;48.15;28.48;;;;;;;9.18;43.07;102006.22;5010262;28;20044;-61
2022/03/05 11:15:16;;;;;;;52.70;28.58;;;;;;;9.20;43.06;102007.69;5008353;28;20061;-62
2022/03/05 11:17:42;;;;;;;52.03;28.80;;;;;;;9.21;43.32;102006.63;5010346;28;20062;-60
2022/03/05 11:20:08;;;;;;;55.05;29.60;;;;;;;9.22;43.72;101997.25;5009251;28;20037;-61